createdAt,value
2022-07-29T00:02:15.745Z,1.00
2022-07-29T00:04:45.103Z,0.90
2022-07-29T00:07:13.055Z,1.03
2022-07-29T00:09:51.361Z,1.07
2022-07-29T00:12:25.735Z,0.90
2022-07-29T00:14:55.196Z,1.10
2022-07-29T00:17:23.157Z,1.03
2022-07-29T00:19:52.653Z,1.00
2022-07-29T00:22:21.367Z,1.00
2022-07-29T00:24:50.152Z,1.03
2022-07-29T00:27:18.612Z,1.20
2022-07-29T00:29:46.646Z,1.30
2022-07-29T00:32:14.698Z,1.00
2022-07-29T00:35:00.052Z,1.00
2022-07-29T00:37:29.681Z,0.80
2022-07-29T00:39:57.819Z,1.13
2022-07-29T00:42:25.772Z,1.10
2022-07-29T00:44:53.730Z,1.10
2022-07-29T00:47:21.695Z,0.93
2022-07-29T00:49:49.946Z,1.00
2022-07-29T00:52:17.955Z,1.10
2022-07-29T00:54:47.525Z,0.90
2022-07-29T00:57:15.497Z,0.97
2022-07-29T00:59:43.479Z,1.00
2022-07-29T01:02:11.569Z,0.90
2022-07-29T01:04:39.598Z,1.40
2022-07-29T01:07:08.019Z,1.43
2022-07-29T01:09:45.697Z,1.10
2022-07-29T01:12:19.252Z,1.00
2022-07-29T01:14:48.285Z,1.10
2022-07-29T01:17:20.501Z,1.10
2022-07-29T01:19:53.750Z,1.17
2022-07-29T01:22:28.858Z,0.70
2022-07-29T01:25:15.327Z,1.10
2022-07-29T01:27:54.515Z,1.10
2022-07-29T01:30:25.067Z,1.00
2022-07-29T01:32:57.114Z,1.27
2022-07-29T01:35:27.442Z,0.87
2022-07-29T01:38:00.839Z,1.27
2022-07-29T01:40:38.101Z,0.97
2022-07-29T01:43:11.917Z,1.20
2022-07-29T01:45:43.318Z,0.83
2022-07-29T01:48:14.738Z,1.30
2022-07-29T01:50:47.889Z,1.00
2022-07-29T01:53:19.058Z,1.03
2022-07-29T01:55:48.315Z,1.00
2022-07-29T01:58:16.645Z,1.10
2022-07-29T02:00:50.234Z,1.10
2022-07-29T02:03:20.059Z,0.80
2022-07-29T02:05:49.133Z,1.30
2022-07-29T02:08:18.951Z,1.17
2022-07-29T02:10:48.488Z,0.93
2022-07-29T02:13:18.171Z,1.20
2022-07-29T02:15:47.077Z,0.77
2022-07-29T02:18:20.082Z,0.90
2022-07-29T02:20:50.813Z,1.10
2022-07-29T02:23:21.344Z,0.90
2022-07-29T02:25:50.583Z,1.10
2022-07-29T02:28:21.362Z,0.87
2022-07-29T02:30:50.269Z,1.07
2022-07-29T02:33:20.945Z,0.90
2022-07-29T02:35:49.649Z,1.10
2022-07-29T02:38:36.110Z,1.00
2022-07-29T02:41:07.979Z,1.30
2022-07-29T02:43:36.545Z,0.90
2022-07-29T02:46:12.739Z,1.10
2022-07-29T02:49:00.897Z,1.13
2022-07-29T02:51:43.587Z,1.20
2022-07-29T02:54:14.059Z,1.20
2022-07-29T02:56:42.794Z,1.07
2022-07-29T02:59:12.776Z,1.17
2022-07-29T03:01:42.807Z,1.27
2022-07-29T03:04:14.658Z,1.10
2022-07-29T03:06:43.058Z,1.03
2022-07-29T03:09:13.702Z,1.03
2022-07-29T03:11:49.791Z,1.20
2022-07-29T03:14:20.492Z,1.20
2022-07-29T03:16:48.992Z,1.27
2022-07-29T03:19:18.745Z,1.30
2022-07-29T03:21:46.690Z,1.30
2022-07-29T03:24:27.670Z,1.20
2022-07-29T03:26:57.103Z,1.20
2022-07-29T03:29:25.115Z,1.20
2022-07-29T03:32:04.298Z,1.40
2022-07-29T03:34:37.844Z,1.00
2022-07-29T03:37:06.996Z,1.00
2022-07-29T03:39:38.966Z,1.10
2022-07-29T03:42:08.132Z,1.30
2022-07-29T03:44:37.158Z,1.27
2022-07-29T03:47:06.609Z,1.30
2022-07-29T03:49:36.445Z,1.30
2022-07-29T03:52:04.816Z,1.13
2022-07-29T03:54:32.766Z,1.10
2022-07-29T03:57:02.250Z,1.27
2022-07-29T03:59:30.275Z,1.30
2022-07-29T04:01:59.062Z,1.30
2022-07-29T04:04:27.458Z,1.23
2022-07-29T04:06:58.115Z,1.17
2022-07-29T04:09:26.055Z,1.20
2022-07-29T04:12:03.565Z,1.30
2022-07-29T04:14:33.105Z,1.37
2022-07-29T04:17:01.356Z,1.40
2022-07-29T04:19:29.370Z,1.20
2022-07-29T04:21:58.724Z,1.30
2022-07-29T04:24:26.866Z,1.23
2022-07-29T04:26:54.931Z,1.23
2022-07-29T04:29:22.868Z,1.40
2022-07-29T04:31:50.823Z,1.10
2022-07-29T04:34:19.284Z,1.50
2022-07-29T04:36:47.778Z,1.30
2022-07-29T04:39:22.769Z,1.37
2022-07-29T04:41:52.574Z,1.37
2022-07-29T04:44:26.559Z,1.23
2022-07-29T04:46:57.867Z,1.33
2022-07-29T04:49:26.009Z,1.37
2022-07-29T04:51:53.994Z,1.60
2022-07-29T04:54:23.325Z,1.30
2022-07-29T04:56:51.280Z,1.20
2022-07-29T04:59:19.202Z,1.40
2022-07-29T05:01:47.184Z,1.33
2022-07-29T05:04:15.344Z,1.13
2022-07-29T05:06:43.507Z,1.40
2022-07-29T05:09:11.483Z,1.50
2022-07-29T05:11:40.772Z,1.60
2022-07-29T05:14:08.725Z,1.50
2022-07-29T05:16:36.634Z,1.27
2022-07-29T05:19:04.645Z,1.40
2022-07-29T05:21:32.561Z,1.60
2022-07-29T05:24:00.507Z,1.30
2022-07-29T05:26:28.457Z,1.30
2022-07-29T05:28:58.088Z,1.37
2022-07-29T05:31:26.163Z,1.40
2022-07-29T05:33:54.146Z,1.37
2022-07-29T05:36:22.087Z,1.33
2022-07-29T05:38:50.078Z,1.30
2022-07-29T05:41:17.990Z,1.40
2022-07-29T05:43:45.940Z,1.40
2022-07-29T05:46:16.306Z,1.47
2022-07-29T05:48:44.332Z,1.50
2022-07-29T05:51:12.327Z,1.37
2022-07-29T05:53:40.525Z,1.60
2022-07-29T05:56:08.854Z,1.23
2022-07-29T05:58:37.262Z,1.33
2022-07-29T06:01:05.303Z,1.50
2022-07-29T06:03:35.634Z,1.17
2022-07-29T06:06:03.561Z,1.60
2022-07-29T06:08:31.475Z,1.40
2022-07-29T06:10:59.400Z,1.50
2022-07-29T06:13:27.341Z,1.50
2022-07-29T06:15:55.331Z,1.70
2022-07-29T06:18:24.801Z,1.50
2022-07-29T06:20:54.827Z,1.40
2022-07-29T06:23:23.180Z,1.50
2022-07-29T06:25:51.099Z,1.50
2022-07-29T06:28:19.060Z,1.50
2022-07-29T06:30:47.088Z,1.60
2022-07-29T06:33:18.897Z,1.70
2022-07-29T06:35:53.465Z,1.57
2022-07-29T06:38:31.276Z,1.40
2022-07-29T06:41:01.263Z,1.80
2022-07-29T06:43:32.446Z,1.30
2022-07-29T06:46:02.330Z,1.30
2022-07-29T06:48:31.179Z,1.43
2022-07-29T06:50:59.239Z,1.53
2022-07-29T06:53:28.575Z,1.27
2022-07-29T06:55:56.544Z,1.67
2022-07-29T06:58:24.474Z,1.50
2022-07-29T07:00:52.496Z,1.73
2022-07-29T07:03:20.849Z,1.50
2022-07-29T07:05:48.998Z,1.80
2022-07-29T07:08:18.080Z,1.50
2022-07-29T07:10:47.502Z,1.50
2022-07-29T07:13:18.231Z,1.40
2022-07-29T07:15:48.755Z,1.67
2022-07-29T07:18:17.209Z,1.50
2022-07-29T07:20:45.709Z,1.40
2022-07-29T07:23:13.809Z,1.60
2022-07-29T07:25:41.783Z,1.83
2022-07-29T07:28:11.248Z,1.50
2022-07-29T07:30:39.198Z,1.50
2022-07-29T07:33:07.206Z,1.70
2022-07-29T07:35:35.375Z,1.77
2022-07-29T07:38:03.461Z,1.50
2022-07-29T07:40:31.411Z,1.43
2022-07-29T07:42:59.365Z,1.60
2022-07-29T07:45:29.465Z,1.73
2022-07-29T07:47:57.402Z,1.70
2022-07-29T07:50:25.907Z,1.53
2022-07-29T07:52:55.988Z,2.30
2022-07-29T07:55:24.074Z,1.60
2022-07-29T07:57:52.150Z,1.70
2022-07-29T08:00:23.247Z,1.87
2022-07-29T08:02:53.305Z,2.23
2022-07-29T08:05:21.630Z,1.90
2022-07-29T08:07:49.561Z,2.30
2022-07-29T08:10:38.999Z,1.73
2022-07-29T08:13:07.903Z,1.50
2022-07-29T08:15:35.956Z,1.67
2022-07-29T08:18:08.784Z,1.67
2022-07-29T08:20:37.494Z,1.60
2022-07-29T08:23:07.027Z,1.50
2022-07-29T08:25:38.650Z,1.70
2022-07-29T08:28:08.187Z,1.90
2022-07-29T08:30:36.821Z,1.80
2022-07-29T08:33:06.175Z,1.83
2022-07-29T08:35:35.733Z,1.73
2022-07-29T08:38:04.798Z,1.90
2022-07-29T08:40:32.935Z,1.50
2022-07-29T08:43:01.858Z,1.83
2022-07-29T08:45:30.497Z,1.80
2022-07-29T08:47:59.085Z,1.60
2022-07-29T08:50:28.384Z,1.60
2022-07-29T08:52:59.719Z,1.93
2022-07-29T08:55:28.413Z,1.80
2022-07-29T08:57:57.345Z,1.57
2022-07-29T09:00:26.359Z,1.70
2022-07-29T09:02:59.707Z,2.00
2022-07-29T09:05:29.969Z,1.50
2022-07-29T09:07:58.380Z,1.60
2022-07-29T09:10:26.634Z,1.50
2022-07-29T09:12:54.624Z,1.80
2022-07-29T09:15:22.718Z,1.90
2022-07-29T09:17:51.782Z,1.70
2022-07-29T09:20:20.905Z,1.67
2022-07-29T09:22:51.876Z,1.63
2022-07-29T09:25:34.598Z,2.07
2022-07-29T09:28:08.805Z,1.77
2022-07-29T09:30:37.307Z,1.80
2022-07-29T09:33:05.690Z,1.67
2022-07-29T09:35:33.899Z,1.70
2022-07-29T09:38:13.640Z,1.70
2022-07-29T09:40:42.096Z,1.90
2022-07-29T09:43:13.830Z,1.57
2022-07-29T09:45:42.121Z,1.60
2022-07-29T09:48:18.262Z,1.43
2022-07-29T09:50:47.967Z,1.80
2022-07-29T09:53:32.406Z,1.93
2022-07-29T09:56:00.806Z,1.70
2022-07-29T09:58:29.178Z,1.60
2022-07-29T10:00:58.263Z,1.60
2022-07-29T10:03:26.779Z,1.50
2022-07-29T10:06:11.286Z,1.63
2022-07-29T10:08:41.894Z,1.45
2022-07-29T10:11:14.370Z,1.52
2022-07-29T10:13:43.393Z,1.50
2022-07-29T10:16:11.443Z,1.58
2022-07-29T10:18:42.155Z,1.63
2022-07-29T10:21:11.092Z,1.55
2022-07-29T10:23:52.032Z,1.70
2022-07-29T10:26:20.408Z,1.88
2022-07-29T10:28:48.405Z,1.83
2022-07-29T10:31:27.123Z,1.88
2022-07-29T10:34:04.350Z,1.60
2022-07-29T10:36:44.565Z,1.83
2022-07-29T10:39:25.421Z,1.73
2022-07-29T10:42:11.430Z,1.80
2022-07-29T10:44:42.653Z,1.67
2022-07-29T10:47:10.862Z,2.13
2022-07-29T10:49:41.076Z,1.73
2022-07-29T10:52:10.483Z,1.73
2022-07-29T10:54:43.885Z,1.70
2022-07-29T10:57:16.924Z,1.75
2022-07-29T10:59:46.313Z,1.70
2022-07-29T11:02:45.964Z,1.50
2022-07-29T11:05:15.495Z,1.80
2022-07-29T11:08:25.996Z,1.50
2022-07-29T11:11:44.133Z,1.60
2022-07-29T11:14:26.499Z,1.60
2022-07-29T11:17:06.109Z,1.45
2022-07-29T11:19:35.837Z,1.58
2022-07-29T11:22:05.376Z,1.52
2022-07-29T11:24:35.255Z,1.30
2022-07-29T11:27:10.869Z,1.50
2022-07-29T11:29:51.139Z,1.45
2022-07-29T11:32:22.687Z,1.67
2022-07-29T11:34:52.577Z,1.40
2022-07-29T11:37:28.378Z,2.03
2022-07-29T11:40:20.210Z,1.45
2022-07-29T11:42:51.865Z,1.45
2022-07-29T11:45:42.592Z,1.60
2022-07-29T11:48:28.982Z,1.35
2022-07-29T11:50:59.490Z,1.58
2022-07-29T11:53:29.204Z,1.60
2022-07-29T11:56:02.663Z,1.40
2022-07-29T11:58:31.893Z,1.60
2022-07-29T12:01:04.748Z,1.58
2022-07-29T12:03:35.929Z,1.30
2022-07-29T12:06:22.165Z,1.48
2022-07-29T12:08:50.476Z,1.50
2022-07-29T12:11:21.216Z,1.52
2022-07-29T12:13:52.391Z,1.70
2022-07-29T12:16:25.318Z,1.60
2022-07-29T12:19:02.373Z,1.30
2022-07-29T12:21:31.234Z,1.42
2022-07-29T12:24:05.917Z,1.35
2022-07-29T12:26:37.799Z,1.60
2022-07-29T12:29:11.227Z,1.48
2022-07-29T12:31:45.702Z,1.40
2022-07-29T12:34:14.425Z,1.50
2022-07-29T12:36:44.118Z,1.33
2022-07-29T12:39:12.544Z,1.50
2022-07-29T12:41:40.780Z,1.30
2022-07-29T12:44:08.771Z,1.27
2022-07-29T12:46:37.198Z,2.00
2022-07-29T12:49:06.792Z,1.30
2022-07-29T12:51:37.487Z,1.25
2022-07-29T12:54:07.945Z,1.52
2022-07-29T12:56:44.387Z,1.55
2022-07-29T12:59:17.856Z,1.35
2022-07-29T13:01:48.059Z,1.70
2022-07-29T13:04:28.621Z,1.50
2022-07-29T13:07:06.499Z,1.42
2022-07-29T13:09:42.290Z,1.70
2022-07-29T13:12:11.804Z,1.85
2022-07-29T13:14:41.078Z,1.63
2022-07-29T13:17:10.517Z,1.80
2022-07-29T13:19:42.390Z,1.50
2022-07-29T13:22:11.446Z,1.40
2022-07-29T13:24:50.403Z,1.50
2022-07-29T13:27:18.425Z,1.20
2022-07-29T13:29:47.422Z,1.48
2022-07-29T13:32:15.910Z,1.40
2022-07-29T13:34:45.281Z,1.33
2022-07-29T13:37:13.234Z,1.67
2022-07-29T13:39:41.162Z,1.60
2022-07-29T13:42:11.015Z,1.58
2022-07-29T13:44:39.290Z,1.40
2022-07-29T13:47:08.099Z,1.63
2022-07-29T13:49:36.077Z,1.52
2022-07-29T13:52:08.389Z,1.40
2022-07-29T13:54:41.977Z,1.40
2022-07-29T13:57:11.845Z,1.60
2022-07-29T13:59:40.275Z,1.60
2022-07-29T14:02:08.469Z,1.60
2022-07-29T14:04:36.886Z,1.30
2022-07-29T14:07:09.304Z,1.45
2022-07-29T14:09:41.089Z,1.77
2022-07-29T14:12:10.565Z,1.45
2022-07-29T14:14:38.578Z,1.60
2022-07-29T14:17:07.527Z,1.40
2022-07-29T14:19:38.975Z,1.50
2022-07-29T14:22:10.678Z,1.30
2022-07-29T14:24:46.250Z,1.30
2022-07-29T14:27:16.825Z,1.73
2022-07-29T14:29:50.426Z,1.40
2022-07-29T14:32:22.328Z,1.60
2022-07-29T14:34:50.283Z,1.33
2022-07-29T14:37:20.091Z,1.60
2022-07-29T14:39:48.035Z,1.50
2022-07-29T14:42:15.995Z,1.50
2022-07-29T14:44:44.678Z,1.90
2022-07-29T14:47:12.708Z,1.55
2022-07-29T14:49:40.679Z,1.50
2022-07-29T14:52:08.608Z,1.70
2022-07-29T14:54:37.932Z,1.90
2022-07-29T14:57:05.966Z,1.50
2022-07-29T14:59:33.997Z,1.35
2022-07-29T15:02:02.479Z,1.77
2022-07-29T15:04:31.183Z,2.25
2022-07-29T15:06:59.165Z,2.10
2022-07-29T15:09:27.093Z,1.80
2022-07-29T15:11:56.865Z,2.10
2022-07-29T15:14:25.023Z,2.20
2022-07-29T15:16:53.082Z,2.00
2022-07-29T15:19:21.153Z,2.30
2022-07-29T15:21:49.280Z,1.98
2022-07-29T15:24:17.729Z,2.03
2022-07-29T15:26:45.979Z,2.40
2022-07-29T15:29:15.642Z,2.05
2022-07-29T15:31:44.280Z,2.25
2022-07-29T15:34:12.609Z,1.70
2022-07-29T15:36:56.299Z,2.33
2022-07-29T15:39:24.378Z,5.28
2022-07-29T15:41:52.962Z,3.63
2022-07-29T15:44:22.933Z,3.75
2022-07-29T15:47:07.183Z,2.40
2022-07-29T15:49:48.178Z,2.05
2022-07-29T15:52:25.506Z,2.22
2022-07-29T15:54:55.083Z,2.25
2022-07-29T15:57:23.665Z,1.90
2022-07-29T15:59:53.208Z,2.20
2022-07-29T16:02:21.214Z,1.60
2022-07-29T16:04:49.593Z,1.60
2022-07-29T16:07:17.569Z,1.88
2022-07-29T16:09:50.729Z,1.80
2022-07-29T16:12:20.835Z,1.63
2022-07-29T16:14:51.199Z,1.70
2022-07-29T16:17:21.090Z,1.50
2022-07-29T16:19:49.529Z,1.50
2022-07-29T16:22:17.631Z,1.48
2022-07-29T16:24:46.062Z,1.88
2022-07-29T16:27:13.987Z,2.00
2022-07-29T16:29:41.967Z,1.90
2022-07-29T16:32:09.992Z,2.22
2022-07-29T16:34:39.907Z,1.88
2022-07-29T16:37:07.850Z,1.73
2022-07-29T16:39:35.784Z,1.58
2022-07-29T16:42:05.452Z,2.60
2022-07-29T16:44:34.881Z,1.73
2022-07-29T16:47:04.014Z,1.50
2022-07-29T16:49:32.730Z,1.42
2022-07-29T16:52:02.056Z,1.65
2022-07-29T16:54:30.050Z,1.45
2022-07-29T16:57:00.718Z,1.30
2022-07-29T16:59:29.433Z,1.58
2022-07-29T17:01:57.887Z,1.60
2022-07-29T17:04:27.552Z,1.70
2022-07-29T17:06:56.045Z,1.60
2022-07-29T17:09:25.626Z,1.60
2022-07-29T17:11:55.165Z,1.90
2022-07-29T17:14:24.999Z,1.73
2022-07-29T17:17:00.893Z,1.50
2022-07-29T17:19:30.501Z,1.40
2022-07-29T17:22:08.385Z,1.58
2022-07-29T17:24:41.262Z,1.75
2022-07-29T17:27:09.502Z,1.55
2022-07-29T17:29:37.526Z,1.33
2022-07-29T17:32:07.495Z,1.70
2022-07-29T17:34:36.403Z,1.70
2022-07-29T17:37:04.543Z,1.70
2022-07-29T17:39:32.874Z,1.67
2022-07-29T17:42:02.418Z,1.80
2022-07-29T17:44:30.475Z,1.77
2022-07-29T17:46:58.727Z,1.58
2022-07-29T17:49:27.320Z,1.70
2022-07-29T17:52:00.376Z,1.60
2022-07-29T17:54:28.931Z,1.60
2022-07-29T17:56:57.355Z,1.40
2022-07-29T17:59:27.135Z,1.50
2022-07-29T18:01:55.438Z,1.70
2022-07-29T18:04:23.709Z,1.45
2022-07-29T18:06:51.895Z,1.60
2022-07-29T18:09:20.217Z,1.52
2022-07-29T18:11:48.926Z,1.40
2022-07-29T18:14:17.291Z,1.80
2022-07-29T18:16:46.808Z,1.52
2022-07-29T18:19:14.960Z,1.63
2022-07-29T18:21:54.742Z,1.70
2022-07-29T18:24:25.524Z,1.50
2022-07-29T18:26:53.762Z,1.80
2022-07-29T18:29:21.952Z,1.60
2022-07-29T18:31:51.471Z,1.60
2022-07-29T18:34:19.426Z,1.60
2022-07-29T18:36:47.445Z,1.70
2022-07-29T18:39:20.632Z,1.58
2022-07-29T18:41:51.053Z,1.50
2022-07-29T18:44:22.050Z,1.92
2022-07-29T18:46:52.516Z,1.52
2022-07-29T18:49:20.714Z,1.67
2022-07-29T18:51:48.851Z,2.00
2022-07-29T18:54:17.633Z,1.60
2022-07-29T18:56:45.987Z,1.70
2022-07-29T18:59:16.959Z,1.50
2022-07-29T19:01:46.190Z,1.83
2022-07-29T19:04:15.721Z,1.50
2022-07-29T19:06:43.766Z,1.55
2022-07-29T19:09:12.336Z,1.77
2022-07-29T19:11:41.001Z,1.95
2022-07-29T19:14:08.986Z,2.00
2022-07-29T19:16:37.001Z,1.60
2022-07-29T19:19:06.428Z,1.52
2022-07-29T19:21:36.011Z,1.50
2022-07-29T19:24:07.435Z,1.58
2022-07-29T19:26:39.441Z,1.67
2022-07-29T19:29:07.404Z,1.58
2022-07-29T19:31:35.486Z,1.55
2022-07-29T19:34:03.514Z,1.70
2022-07-29T19:36:31.550Z,1.50
2022-07-29T19:39:01.115Z,1.75
2022-07-29T19:41:29.493Z,1.35
2022-07-29T19:43:57.688Z,1.77
2022-07-29T19:46:28.899Z,1.45
2022-07-29T19:48:57.477Z,1.48
2022-07-29T19:51:25.779Z,1.85
2022-07-29T19:53:53.737Z,1.45
2022-07-29T19:56:26.651Z,1.50
2022-07-29T19:58:54.694Z,1.38
2022-07-29T20:01:23.374Z,1.58
2022-07-29T20:03:51.831Z,2.03
2022-07-29T20:06:19.771Z,1.42
2022-07-29T20:08:47.938Z,1.40
2022-07-29T20:11:16.026Z,1.75
2022-07-29T20:13:45.365Z,1.50
2022-07-29T20:16:13.371Z,1.92
2022-07-29T20:18:41.399Z,1.25
2022-07-29T20:21:09.349Z,1.90
2022-07-29T20:23:37.447Z,1.70
2022-07-29T20:26:09.254Z,1.63
2022-07-29T20:28:39.517Z,1.63
2022-07-29T20:31:09.127Z,1.40
2022-07-29T20:33:37.221Z,1.70
2022-07-29T20:36:06.041Z,1.50
2022-07-29T20:38:33.978Z,1.50
2022-07-29T20:41:01.925Z,1.83
2022-07-29T20:43:29.937Z,1.48
2022-07-29T20:46:04.158Z,1.55
2022-07-29T20:48:33.777Z,1.30
2022-07-29T20:51:01.707Z,1.60
2022-07-29T20:53:29.807Z,1.35
2022-07-29T20:55:57.745Z,1.52
2022-07-29T20:58:25.751Z,1.30
2022-07-29T21:00:53.714Z,1.20
2022-07-29T21:03:21.656Z,1.45
2022-07-29T21:05:51.551Z,1.25
2022-07-29T21:08:19.469Z,1.70
2022-07-29T21:10:47.410Z,1.48
2022-07-29T21:13:15.342Z,1.42
2022-07-29T21:15:45.862Z,1.23
2022-07-29T21:18:27.148Z,1.45
2022-07-29T21:20:56.554Z,1.55
2022-07-29T21:23:24.625Z,1.40
2022-07-29T21:25:52.897Z,1.57
2022-07-29T21:28:30.602Z,1.90
2022-07-29T21:31:00.602Z,1.60
2022-07-29T21:33:30.354Z,1.52
2022-07-29T21:36:16.007Z,1.58
2022-07-29T21:38:47.681Z,1.83
2022-07-29T21:41:15.837Z,2.28
2022-07-29T21:43:43.809Z,2.00
2022-07-29T21:46:11.747Z,1.80
2022-07-29T21:48:44.220Z,1.85
2022-07-29T21:51:13.970Z,1.80
2022-07-29T21:53:41.942Z,1.98
2022-07-29T21:56:10.948Z,1.70
2022-07-29T21:58:43.203Z,1.70
2022-07-29T22:01:11.312Z,1.70
2022-07-29T22:03:39.269Z,1.70
2022-07-29T22:06:07.357Z,1.60
2022-07-29T22:08:36.693Z,1.70
2022-07-29T22:11:04.621Z,1.80
2022-07-29T22:13:32.634Z,1.50
2022-07-29T22:16:00.553Z,1.80
2022-07-29T22:18:28.470Z,1.73
2022-07-29T22:20:56.549Z,1.60
2022-07-29T22:23:24.488Z,1.65
2022-07-29T22:25:53.817Z,1.52
2022-07-29T22:28:21.781Z,1.40
2022-07-29T22:30:49.783Z,1.60
2022-07-29T22:33:18.256Z,1.80
2022-07-29T22:35:48.463Z,1.60
2022-07-29T22:38:17.174Z,1.30
2022-07-29T22:40:45.152Z,1.70
2022-07-29T22:43:14.713Z,1.60
2022-07-29T22:45:43.010Z,1.70
2022-07-29T22:48:11.242Z,1.80
2022-07-29T22:50:39.566Z,1.33
2022-07-29T22:53:07.527Z,1.77
2022-07-29T22:55:35.505Z,1.55
2022-07-29T22:58:03.423Z,1.60
2022-07-29T23:00:32.837Z,1.65
2022-07-29T23:03:00.823Z,1.67
2022-07-29T23:05:28.777Z,1.50
2022-07-29T23:07:56.741Z,1.60
2022-07-29T23:10:24.683Z,1.93
2022-07-29T23:12:52.616Z,1.90
2022-07-29T23:15:20.786Z,1.80
2022-07-29T23:17:50.106Z,1.60
2022-07-29T23:20:18.054Z,1.60
2022-07-29T23:22:46.011Z,1.80
2022-07-29T23:25:13.994Z,1.80
2022-07-29T23:27:42.285Z,1.50
2022-07-29T23:30:11.080Z,1.83
2022-07-29T23:32:39.068Z,1.70
2022-07-29T23:35:10.290Z,1.70
2022-07-29T23:37:39.285Z,2.00
2022-07-29T23:40:13.614Z,2.20
2022-07-29T23:42:42.992Z,1.80
2022-07-29T23:45:12.152Z,1.73
2022-07-29T23:47:40.082Z,1.80
2022-07-29T23:50:13.191Z,1.80
2022-07-29T23:52:41.528Z,1.73
2022-07-29T23:55:37.497Z,1.60
2022-07-29T23:57:57.839Z,1.83
